Terminal Aerodrome Forecast
Issued by NWS

Home | Current Version | Previous Version | Text Only | Print | Product List | Glossary On
Versions: 1 2 3 4 5 6 7 8 9 10 11 12 13
000
FTUS46 KMTR 190500
TAFOAK
TAF
KOAK 190521Z 1906/2012 26006KT P6SM FEW010 SCT200
     FM190900 26005KT P6SM SCT012
      TEMPO 1912/1916 BKN012
     FM191600 27007KT P6SM SCT015 BKN250
     FM191900 26012KT P6SM FEW015
     FM192100 27015KT P6SM SKC
     FM200800 29005KT P6SM BKN010=

USA.gov is the U.S. government's official web portal to all federal, state and local government web resources and services.